»·PEaware :: WJA150 KSAN-KLAS

WJA150 :: KSAN-KLAS

FLIGHT INFORMATION

Flight Status: Arrived
Operator:
Westjet Airlines
More flights by this operator :: More flights under this callsign
Pilot: Anonymous 39602 (39602)
Aircraft: BOEING 737-600
(B736)
More flights by this aircraft type
Origin: KSAN San Diego Intl-Lindbergh
United States
Destination: KLAS Harry Reid Intl
United States
More flights between these airports :: More routes between these airports
Route: ECHHO2 SLI SEBBY YELAH MISEN RNDRZ2
File this flight plan on PilotEdge
Remarks: RMK / SIMBRIEF
Altitude:
(Current/Filed)
37,000ft
Speed:
(Current/Filed)
458kts
Departed: 16-Feb-23 10:33 AM
Arrived: 16-Feb-23 11:27 AM
Distance/Time
Traveled:
225nm/0:54
Distance/Time
To Go:
Arrived

Flight Plot

Page will automatically refresh every two minutes.

Flight plan parsing failed; only flown route is shown


Map Options




Map Legend


Flown Route
Filed Route
Departure Airport
Arrival Airport
Navaid (VOR, NDB)
Fix

Horizontal Profiles

Position Reports

Time Latitude Longitude Heading Altitude Ground
Speed
16-Feb-23 09:41 32.732581 -117.195511 314 18ft 0kts
16-Feb-23 09:42 32.732581 -117.195511 314 18ft 0kts
16-Feb-23 09:43 32.732581 -117.195511 314 18ft 0kts
16-Feb-23 09:44 32.732581 -117.195511 314 18ft 0kts
16-Feb-23 09:45 32.732581 -117.195511 314 18ft 0kts
16-Feb-23 09:46 32.732581 -117.195511 314 18ft 0kts
16-Feb-23 09:47 32.732581 -117.195511 314 18ft 0kts
16-Feb-23 09:48 32.732581 -117.195511 314 18ft 0kts
16-Feb-23 09:49 32.732581 -117.195511 314 18ft 0kts
16-Feb-23 09:50 32.732581 -117.195511 314 18ft 0kts
16-Feb-23 09:51 32.732581 -117.195511 314 18ft 0kts
16-Feb-23 09:52 32.732581 -117.195511 314 18ft 0kts
16-Feb-23 09:53 32.732581 -117.195511 314 18ft 0kts
16-Feb-23 09:54 32.732581 -117.195511 314 18ft 0kts
16-Feb-23 09:55 32.732581 -117.195511 314 18ft 0kts
16-Feb-23 09:56 32.732581 -117.195511 314 18ft 0kts
16-Feb-23 09:57 32.732581 -117.195511 314 18ft 0kts
16-Feb-23 09:58 32.732581 -117.195511 314 18ft 0kts
16-Feb-23 09:59 32.732581 -117.195511 314 18ft 0kts
16-Feb-23 10:00 32.732581 -117.195511 314 18ft 0kts
16-Feb-23 10:01 32.732581 -117.195511 314 18ft 0kts
16-Feb-23 10:02 32.732581 -117.195511 314 18ft 0kts
16-Feb-23 10:03 32.732581 -117.195511 314 18ft 0kts
16-Feb-23 10:04 32.732581 -117.195511 314 28ft 0kts
16-Feb-23 10:05 32.732581 -117.195511 314 28ft 0kts
16-Feb-23 10:06 32.732581 -117.195511 314 28ft 0kts
16-Feb-23 10:07 32.732342 -117.194901 341 20ft 2kts
16-Feb-23 10:08 32.732063 -117.194944 15 20ft 0kts
16-Feb-23 10:09 32.732063 -117.194944 15 20ft 0kts
16-Feb-23 10:10 32.732063 -117.194944 15 20ft 0kts
16-Feb-23 10:11 32.732063 -117.194944 15 20ft 0kts
16-Feb-23 10:12 32.732063 -117.194944 15 20ft 0kts
16-Feb-23 10:13 32.732063 -117.194944 15 20ft 0kts
16-Feb-23 10:14 32.732063 -117.194944 15 20ft 0kts
16-Feb-23 10:15 32.732063 -117.194944 15 20ft 0kts
16-Feb-23 10:16 32.732143 -117.194917 18 19ft 1kts
16-Feb-23 10:17 32.732531 -117.194684 28 21ft 1kts
16-Feb-23 10:18 32.732619 -117.194626 28 20ft 0kts
16-Feb-23 10:19 32.732619 -117.194626 28 20ft 0kts
16-Feb-23 10:20 32.732619 -117.194626 28 20ft 0kts
16-Feb-23 10:21 32.732619 -117.194626 28 20ft 0kts
16-Feb-23 10:22 32.732619 -117.194626 28 20ft 0kts
16-Feb-23 10:23 32.732619 -117.194626 28 20ft 0kts
16-Feb-23 10:24 32.732619 -117.194626 28 20ft 0kts
16-Feb-23 10:25 32.732619 -117.194626 28 20ft 0kts
16-Feb-23 10:26 32.732619 -117.194626 28 20ft 0kts
16-Feb-23 10:27 32.734077 -117.196060 286 23ft 12kts
16-Feb-23 10:28 32.735013 -117.199888 285 22ft 11kts
16-Feb-23 10:29 32.735730 -117.202820 285 20ft 9kts
16-Feb-23 10:31 32.736913 -117.203763 73 17ft 6kts
16-Feb-23 10:32 32.736878 -117.203302 104 17ft 0kts
16-Feb-23 10:33 32.736501 -117.201542 104 21ft 56kts
16-Feb-23 10:34 32.727825 -117.162850 103 2073ft 135kts
16-Feb-23 10:35 32.718465 -117.113418 100 3855ft 200kts
16-Feb-23 10:36 32.744313 -117.059138 359 6143ft 255kts
16-Feb-23 10:37 32.795049 -117.120249 299 9876ft 291kts
16-Feb-23 10:38 32.839234 -117.216197 301 12322ft 356kts
16-Feb-23 10:39 32.902897 -117.305996 319 16063ft 366kts
16-Feb-23 10:40 32.981364 -117.388093 317 19444ft 382kts
16-Feb-23 10:41 33.062151 -117.472456 316 22628ft 392kts
16-Feb-23 10:42 33.156247 -117.540985 343 24668ft 403kts
16-Feb-23 10:43 33.265379 -117.567844 343 27958ft 397kts
16-Feb-23 10:44 33.371376 -117.594289 340 31404ft 384kts
16-Feb-23 10:45 33.474733 -117.620358 338 34300ft 374kts
16-Feb-23 10:46 33.576355 -117.646144 338 35972ft 382kts
16-Feb-23 10:47 33.667478 -117.669403 339 36247ft 413kts
16-Feb-23 10:48 33.733613 -117.686159 340 36500ft 427kts
16-Feb-23 10:49 33.850993 -117.715910 340 37332ft 433kts
16-Feb-23 10:50 33.968212 -117.745802 340 37314ft 427kts
16-Feb-23 10:51 34.086171 -117.757467 13 37337ft 458kts
16-Feb-23 10:52 34.181116 -117.647224 46 37308ft 489kts
16-Feb-23 10:53 34.261660 -117.525929 45 37328ft 488kts
16-Feb-23 10:53 34.333505 -117.420132 45 37371ft 490kts
16-Feb-23 10:55 34.434502 -117.271117 45 37399ft 490kts
16-Feb-23 10:56 34.520747 -117.143297 45 37396ft 489kts
16-Feb-23 10:57 34.606409 -117.015878 45 37394ft 486kts
16-Feb-23 10:57 34.677409 -116.909932 45 37410ft 485kts
16-Feb-23 10:58 34.762213 -116.782964 45 37315ft 485kts
16-Feb-23 11:00 34.864337 -116.634076 36 33068ft 488kts
16-Feb-23 11:00 34.952929 -116.548749 33 29362ft 486kts
16-Feb-23 11:01 35.055799 -116.449041 35 25849ft 455kts
16-Feb-23 11:02 35.145801 -116.349204 45 23746ft 428kts
16-Feb-23 11:03 35.227914 -116.241439 44 22493ft 428kts
16-Feb-23 11:04 35.306489 -116.133753 46 21334ft 420kts
16-Feb-23 11:05 35.383530 -116.027929 46 20189ft 412kts
16-Feb-23 11:06 35.459115 -115.923842 46 19075ft 402kts
16-Feb-23 11:07 35.531920 -115.823236 46 17909ft 378kts
16-Feb-23 11:08 35.596246 -115.734193 46 16988ft 315kts
16-Feb-23 11:09 35.652168 -115.658762 46 15754ft 295kts
16-Feb-23 11:10 35.708445 -115.582703 47 14889ft 303kts
16-Feb-23 11:11 35.775219 -115.522200 29 14037ft 299kts
16-Feb-23 11:12 35.847115 -115.472507 30 13172ft 293kts
16-Feb-23 11:13 35.917644 -115.423057 30 12346ft 289kts
16-Feb-23 11:14 35.986945 -115.374667 30 11480ft 284kts
16-Feb-23 11:15 36.013572 -115.294017 92 10659ft 277kts
16-Feb-23 11:16 36.007721 -115.203032 91 9834ft 247kts
16-Feb-23 11:17 36.003055 -115.121229 91 9086ft 235kts
16-Feb-23 11:18 35.999070 -115.039978 87 8216ft 238kts
16-Feb-23 11:19 35.998901 -114.963664 87 7205ft 210kts
16-Feb-23 11:20 36.020619 -114.906372 29 6219ft 195kts
16-Feb-23 11:21 36.069541 -114.922268 304 5206ft 215kts
16-Feb-23 11:22 36.073882 -114.991959 272 4117ft 191kts
16-Feb-23 11:23 36.073758 -115.056736 271 3196ft 178kts
16-Feb-23 11:24 36.073649 -115.107811 272 2389ft 125kts
16-Feb-23 11:25 36.073638 -115.146345 270 2188ft 43kts
16-Feb-23 11:26 36.076206 -115.151853 332 2190ft 11kts
16-Feb-23 11:27 36.079930 -115.154012 335 2189ft 13kts
16-Feb-23 11:28 36.082479 -115.153726 65 2188ft 6kts
16-Feb-23 11:29 36.082574 -115.153447 66 2186ft 0kts

Navigation Log

Ident Type
Flight plan parsing failed, navigation log unavailable